• Join FlightAware (Why Join?)
  • Login
  • US Flag 
02:14PM EDT


 

Airport Tracker/Info


-or-


 

Live Flight TrackerFlight Track Log ✈ EJA727 ✈ 24-06-2013 ✈ KCHS - KHPN

Flight Track Log - Related Links

Times and Time Zones

All times are in EDT time to prevent confusion due to time zone crossing. See the EJA727 flight status page for this flight to view local times or setup timezone preferences in your user account.

Time Position Orientation Groundspeed Altitude Reporting Facility
EDT Latitude Longitude Course Direction KTS MPH feet Rate Location/Type
12:27AM 32.8639 -79.9867 13° North 269 310 5,300  Level Jacksonville Center
12:28AM 32.9314 -79.9350 33° Northeast 308 354 9,400 2,340 Climbing Jacksonville Center
12:29AM 33.0294 -79.9342 360° North 313 360 10,000 1,080 Climbing Jacksonville Center
12:30AM 33.1278 -79.9361 359° North 335 386 11,600 2,340 Climbing Jacksonville Center
12:31AM 33.2181 -79.8708 31° Northeast 357 411 14,700 3,000 Climbing Jacksonville Center
12:32AM 33.5610 -79.8350 13° North  Level FlightAware Approximate
12:32AM 33.3081 -79.7933 36° Northeast 369 425 17,700  Level Jacksonville Center
12:33AM 33.6746 -79.8025 13° North  Level FlightAware Approximate
12:33AM 33.4039 -79.7103 36° Northeast 395 455 20,100  Level Jacksonville Center
12:34AM 33.5000 -79.6297 35° Northeast 413 475 22,000 1,680 Climbing Jacksonville Center
12:35AM 33.6022 -79.5486 33° Northeast 427 491 23,500 1,440 Climbing Jacksonville Center
12:36AM 33.7064 -79.4647 34° Northeast 437 503 24,900 1,500 Climbing Jacksonville Center
12:37AM 33.8086 -79.3833 33° Northeast 437 503 26,500 1,500 Climbing Jacksonville Center
12:38AM 33.9208 -79.2964 33° Northeast 453 521 28,000 1,440 Climbing Jacksonville Center
12:40AM 34.1022 -79.1481 34° Northeast 481 554 30,400 1,440 Climbing Washington Center
12:41AM 34.2111 -79.0625 33° Northeast 476 548 31,900 1,440 Climbing Washington Center
12:42AM 34.3203 -78.9739 34° Northeast 471 542 33,400 1,500 Climbing Washington Center
12:43AM 34.4311 -78.8881 33° Northeast 471 542 34,900 1,500 Climbing Washington Center
12:44AM 34.5400 -78.7939 35° Northeast 471 542 36,400 1,560 Climbing Washington Center
12:45AM 34.6572 -78.6975 34° Northeast 471 542 38,100 1,560 Climbing Washington Center
12:46AM 34.7489 -78.6228 34° Northeast 461 531 39,500 1,200 Climbing Washington Center
12:47AM 34.8511 -78.5381 34° Northeast 456 525 40,600 720 Climbing Washington Center
12:48AM 34.9683 -78.4408 34° Northeast 455 524 41,000 180 Climbing Washington Center
12:49AM 35.0769 -78.3508 34° Northeast 460 529 41,000  Level Washington Center
12:50AM 35.1875 -78.2606 34° Northeast 465 535 41,000  Level Washington Center
12:51AM 35.2936 -78.1700 35° Northeast 465 535 41,000  Level Washington Center
12:52AM 35.4042 -78.0792 34° Northeast 470 541 41,000  Level Washington Center
12:53AM 35.5125 -77.9881 34° Northeast 470 541 41,000  Level Washington Center
12:54AM 35.6228 -77.8944 35° Northeast 470 541 41,000  Level Washington Center
12:55AM 35.7286 -77.8078 34° Northeast 470 541 41,000  Level Washington Center
12:56AM 35.8367 -77.7186 34° Northeast 470 541 41,000  Level Washington Center
12:57AM 35.9425 -77.6292 34° Northeast 470 541 41,000  Level Washington Center
12:58AM 36.0483 -77.5394 34° Northeast 470 541 41,000  Level Washington Center
12:59AM 36.1564 -77.4469 35° Northeast 470 541 41,000  Level Washington Center
01:00AM 36.2472 -77.3639 36° Northeast 452 520 41,000  Level Washington Center
01:01AM 36.3550 -77.2761 33° Northeast 452 520 41,000  Level Washington Center
01:02AM 36.4606 -77.1828 35° Northeast 458 527 41,000  Level Washington Center
01:03AM 36.5681 -77.0894 35° Northeast 458 527 41,000  Level Washington Center
01:04AM 36.6736 -76.9956 35° Northeast 458 527 41,000  Level Washington Center
01:05AM 36.7811 -76.9014 35° Northeast 464 534 41,000  Level Washington Center
01:06AM 36.8906 -76.8072 35° Northeast 464 534 41,000  Level Washington Center
01:07AM 37.0064 -76.6997 37° Northeast 469 540 41,000  Level Washington Center
01:08AM 37.1136 -76.6050 35° Northeast 474 545 41,000  Level Washington Center
01:09AM 37.2206 -76.5125 35° Northeast 474 545 41,000  Level Washington Center
01:10AM 37.3278 -76.4197 35° Northeast 474 545 41,000  Level Washington Center
01:11AM 37.4325 -76.3242 36° Northeast 474 545 41,000  Level Washington Center
01:12AM 37.5394 -76.2308 35° Northeast 474 545 41,000  Level Washington Center
01:13AM 37.6381 -76.1531 32° Northeast 469 540 41,000  Level Washington Center
01:14AM 37.7406 -76.0592 36° Northeast 463 533 41,000  Level Washington Center
01:15AM 37.8494 -75.9494 38° Northeast 457 526 41,000  Level Washington Center
01:16AM 37.9519 -75.8578 35° Northeast 452 520 41,000  Level Washington Center
01:17AM 38.0478 -75.7736 35° Northeast 452 520 41,000  Level Washington Center
01:18AM 38.1522 -75.6764 36° Northeast 457 526 41,000  Level Washington Center
01:19AM 38.2564 -75.5811 36° Northeast 457 526 41,000  Level Washington Center
01:20AM 38.3608 -75.4883 35° Northeast 452 520 41,000  Level Washington Center
01:21AM 38.4628 -75.3928 36° Northeast 452 520 41,000 -60 Level Washington Center
01:22AM 38.5669 -75.2944 36° Northeast 452 520 40,900 -960 Descending Washington Center
01:23AM 38.6708 -75.1981 36° Northeast 459 528 39,100 -1,860 Descending Washington Center
01:24AM 38.7767 -75.0964 37° Northeast 464 534 37,300 -1,920 Descending Washington Center
01:25AM 38.8847 -74.9889 38° Northeast 476 548 35,300 -2,040 Descending Washington Center
01:26AM 38.9925 -74.8811 38° Northeast 482 555 33,300 -2,040 Descending Washington Center
01:27AM 39.0981 -74.7786 37° Northeast 482 555 31,300 -2,220 Descending Washington Center
01:28AM 39.2181 -74.6567 38° Northeast 488 562 28,900 -2,100 Descending Washington Center
01:29AM 39.3944 -74.4836 37° Northeast 488 562 25,900 -1,680 Descending New York Center
01:30AM 39.5083 -74.3711 37° Northeast 500 575 24,500 -1,020 Descending New York Center
01:31AM 39.6181 -74.2581 38° Northeast 500 575 23,900 -780 Descending New York Center
01:32AM 39.7278 -74.1422 39° Northeast 500 575 23,000 -480 Descending New York Center
01:33AM 39.8353 -74.0283 39° Northeast 500 575 23,000 -660 Level New York Center
01:36AM 40.1006 -73.7422 39° Northeast 500 575 20,700 -1,140 Descending Boston Center
01:37AM 40.2058 -73.6356 38° Northeast 434 499 18,900 -1,500 Descending Boston Center
01:38AM 40.2944 -73.5392 40° Northeast 410 472 17,700 -960 Descending Boston Center
01:39AM 40.3889 -73.4508 35° Northeast 410 472 17,000 -360 Descending Boston Center
01:40AM 40.4997 -73.4144 14° North 403 464 17,000  Level Boston Center
01:41AM 40.6086 -73.3722 16° North 408 470 17,000 -780 Level Boston Center
01:43AM 40.7667 -73.3167 15° North 323 372 15,000 -960 Descending New York TRACON
01:44AM 40.8333 -73.2333 43° Northeast 311 358 14,600 -1,560 Descending New York TRACON
01:45AM 40.9167 -73.2333 360° North 287 330 11,800 -2,700 Descending New York TRACON
01:46AM 41.0000 -73.2333 360° North 284 327 9,300 -2,700 Descending New York TRACON
01:47AM 41.0333 -73.2833 311° West 288 331 7,000 -2,400 Descending New York TRACON
01:48AM 41.0333 -73.3833 270° West 264 304 4,800 -2,100 Descending New York TRACON
01:48AM 41.0333 -73.4667 270° West 222 255 3,100 -1,440 Descending New York TRACON
01:49AM 41.0167 -73.5333 252° West 196 226 2,100 -1,020 Descending New York TRACON